Time;durP1;ratioP1;P1;durP2;ratioP2;P2;SDS_P1;SDS_P2;PMS_P1;PMS_P2;Temp;Humidity;BMP_temperature;BMP_pressure;BME280_temperature;BME280_humidity;BME280_pressure;Samples;Min_cycle;Max_cycle;Signal;HPM_P1;HPM_P2
2023/08/21 00:00:38;;;;;;;;;;;22.40;99.70;;;;;;5071896;28;19913;-70
2023/08/21 00:03:04;;;;;;;;;;;22.40;99.70;;;;;;5072192;28;19952;-70
2023/08/21 00:05:29;;;;;;;;;;;22.30;99.80;;;;;;5072183;28;19927;-71
2023/08/21 00:07:55;;;;;;;;;;;22.20;99.90;;;;;;5072407;28;19909;-71
2023/08/21 00:10:20;;;;;;;;;;;22.20;99.90;;;;;;5071811;28;19996;-71
2023/08/21 00:12:46;;;;;;;;;;;22.20;99.90;;;;;;5071980;28;19916;-71
2023/08/21 00:15:12;;;;;;;;;;;22.10;99.90;;;;;;5087796;28;20402;-70
2023/08/21 00:17:37;;;;;;;;;;;22.10;99.90;;;;;;5071562;28;20026;-70
2023/08/21 00:20:03;;;;;;;;;;;22.00;99.90;;;;;;5071729;28;19909;-70
2023/08/21 00:22:28;;;;;;;;;;;21.90;99.90;;;;;;5071729;28;19928;-71
2023/08/21 00:24:54;;;;;;;;;;;22.00;99.90;;;;;;5071697;28;19974;-71
2023/08/21 00:27:20;;;;;;;;;;;21.90;99.90;;;;;;5071894;28;19926;-70
2023/08/21 00:29:45;;;;;;;;;;;21.90;99.90;;;;;;5072006;28;20274;-71
2023/08/21 00:32:12;;;;;;;;;;;21.80;99.90;;;;;;5071525;28;19909;-70
2023/08/21 00:34:37;;;;;;;;;;;21.70;99.90;;;;;;5070512;28;20315;-71
2023/08/21 00:37:04;;;;;;;;;;;21.70;99.90;;;;;;5071469;28;19958;-71
2023/08/21 00:39:29;;;;;;;;;;;21.60;99.90;;;;;;5071418;28;20299;-71
2023/08/21 00:41:55;;;;;;;;;;;21.70;99.90;;;;;;5071528;28;20339;-70
2023/08/21 00:44:20;;;;;;;;;;;21.70;99.90;;;;;;5071821;28;20422;-70
2023/08/21 00:46:46;;;;;;;;;;;21.60;99.90;;;;;;5071923;28;19913;-72
2023/08/21 00:49:12;;;;;;;;;;;21.50;99.90;;;;;;5071493;28;20348;-71
2023/08/21 00:51:38;;;;;;;;;;;21.50;99.90;;;;;;5071354;28;20378;-71
2023/08/21 00:54:03;;;;;;;;;;;21.50;99.90;;;;;;5071363;28;20011;-71
2023/08/21 00:56:30;;;;;;;;;;;21.40;99.90;;;;;;5071213;28;20354;-70
2023/08/21 00:58:56;;;;;;;;;;;21.40;99.90;;;;;;5070626;28;19916;-69
2023/08/21 01:01:23;;;;;;;;;;;21.40;99.90;;;;;;5071257;28;19912;-70
2023/08/21 01:03:49;;;;;;;;;;;21.40;99.90;;;;;;5071277;28;19913;-71
2023/08/21 01:06:14;;;;;;;;;;;21.30;99.90;;;;;;5070070;28;19923;-70
2023/08/21 01:08:49;;;;;;;;;;;21.30;99.90;;;;;;5070981;28;19913;-71
2023/08/21 01:11:18;;;;;;;;;;;21.20;99.90;;;;;;5071180;28;20147;-70
2023/08/21 01:13:47;;;;;;;;;;;21.20;99.90;;;;;;5071973;28;19936;-71
2023/08/21 01:16:14;;;;;;;;;;;21.20;99.90;;;;;;5071209;28;20074;-70
2023/08/21 01:18:40;;;;;;;;;;;21.20;99.90;;;;;;5070945;28;20007;-71
2023/08/21 01:21:06;;;;;;;;;;;21.10;99.90;;;;;;5070831;28;19913;-71
2023/08/21 01:23:35;;;;;;;;;;;21.20;99.90;;;;;;5069762;28;20259;-71
2023/08/21 01:26:01;;;;;;;;;;;21.20;99.90;;;;;;5070816;28;19908;-70
2023/08/21 01:28:27;;;;;;;;;;;21.00;99.90;;;;;;5071335;28;20381;-70
2023/08/21 01:30:59;;;;;;;;;;;20.90;99.90;;;;;;5071047;28;19913;-71
2023/08/21 01:33:26;;;;;;;;;;;20.90;99.90;;;;;;5088070;28;19920;-71
2023/08/21 01:35:51;;;;;;;;;;;20.80;99.90;;;;;;5083569;28;19912;-72
2023/08/21 01:38:17;;;;;;;;;;;20.90;99.90;;;;;;5093955;28;19927;-71
2023/08/21 01:40:43;;;;;;;;;;;20.90;99.90;;;;;;5095622;28;20199;-72
2023/08/21 01:43:08;;;;;;;;;;;20.80;99.90;;;;;;5094058;28;19916;-71
2023/08/21 01:45:34;;;;;;;;;;;20.80;99.90;;;;;;5093905;28;19916;-71
2023/08/21 01:48:00;;;;;;;;;;;20.80;99.90;;;;;;5094932;28;19916;-72
2023/08/21 01:50:25;;;;;;;;;;;20.80;99.90;;;;;;5094951;28;19912;-72
2023/08/21 01:52:51;;;;;;;;;;;20.70;99.90;;;;;;5094182;28;20378;-73
2023/08/21 01:55:16;;;;;;;;;;;20.80;99.90;;;;;;5094952;28;20330;-72
2023/08/21 01:57:42;;;;;;;;;;;20.80;99.90;;;;;;5094839;28;19927;-73
2023/08/21 02:00:08;;;;;;;;;;;20.80;99.90;;;;;;5094580;28;19913;-71
2023/08/21 02:02:33;;;;;;;;;;;20.80;99.90;;;;;;5094710;28;19912;-71
2023/08/21 02:04:59;;;;;;;;;;;20.70;99.90;;;;;;5093401;28;19978;-71
2023/08/21 02:07:25;;;;;;;;;;;20.80;99.90;;;;;;5095424;28;20405;-71
2023/08/21 02:09:50;;;;;;;;;;;20.70;99.90;;;;;;5093590;28;19923;-70
2023/08/21 02:12:16;;;;;;;;;;;20.70;99.90;;;;;;5094740;28;19962;-71
2023/08/21 02:14:41;;;;;;;;;;;20.60;99.90;;;;;;5094153;28;19912;-71
2023/08/21 02:17:07;;;;;;;;;;;20.70;99.90;;;;;;5094624;28;19988;-70
2023/08/21 02:19:32;;;;;;;;;;;20.60;99.90;;;;;;5095292;28;20306;-72
2023/08/21 02:21:58;;;;;;;;;;;20.60;99.90;;;;;;5094444;28;19978;-72
2023/08/21 02:24:23;;;;;;;;;;;20.60;99.90;;;;;;5093361;28;20406;-70
2023/08/21 02:26:49;;;;;;;;;;;20.50;99.90;;;;;;5094337;28;19932;-71
2023/08/21 02:29:14;;;;;;;;;;;20.40;99.90;;;;;;5094102;28;19912;-71
2023/08/21 02:31:40;;;;;;;;;;;20.50;99.90;;;;;;5094628;28;20056;-71
2023/08/21 02:34:06;;;;;;;;;;;20.50;99.90;;;;;;5094071;28;19920;-72
2023/08/21 02:36:31;;;;;;;;;;;20.50;99.90;;;;;;5094154;28;20361;-72
2023/08/21 02:38:57;;;;;;;;;;;20.50;99.90;;;;;;5093772;28;20447;-72
2023/08/21 02:41:22;;;;;;;;;;;20.40;99.90;;;;;;5093953;28;20394;-71
2023/08/21 02:43:48;;;;;;;;;;;20.50;99.90;;;;;;5094271;28;19908;-72
2023/08/21 02:46:14;;;;;;;;;;;20.40;99.90;;;;;;5094339;28;20391;-72
2023/08/21 02:48:39;;;;;;;;;;;20.40;99.90;;;;;;5092870;28;20376;-72
2023/08/21 02:51:05;;;;;;;;;;;20.40;99.90;;;;;;5093665;28;19916;-72
2023/08/21 02:53:30;;;;;;;;;;;20.50;99.90;;;;;;5093880;28;19913;-72
2023/08/21 02:55:56;;;;;;;;;;;20.50;99.90;;;;;;5094168;28;20215;-72
2023/08/21 02:58:21;;;;;;;;;;;20.40;99.90;;;;;;5093603;28;19923;-72
2023/08/21 03:00:47;;;;;;;;;;;20.40;99.90;;;;;;5092641;28;20277;-72
2023/08/21 03:03:12;;;;;;;;;;;20.50;99.90;;;;;;5092355;28;19969;-72
2023/08/21 03:05:38;;;;;;;;;;;20.50;99.90;;;;;;5093429;28;19954;-72
2023/08/21 03:08:04;;;;;;;;;;;20.50;99.90;;;;;;5092321;28;19988;-72
2023/08/21 03:10:33;;;;;;;;;;;20.60;99.90;;;;;;5094092;28;19951;-71
2023/08/21 03:12:59;;;;;;;;;;;20.60;99.90;;;;;;5092789;28;19941;-72
2023/08/21 03:15:24;;;;;;;;;;;20.60;99.90;;;;;;5093525;28;20384;-71
2023/08/21 03:17:50;;;;;;;;;;;20.70;99.90;;;;;;5093157;28;19916;-72
2023/08/21 03:20:17;;;;;;;;;;;20.60;99.90;;;;;;5093223;28;19908;-71
2023/08/21 03:22:43;;;;;;;;;;;20.70;99.90;;;;;;5092711;28;20269;-72
2023/08/21 03:25:08;;;;;;;;;;;20.70;99.90;;;;;;5093089;28;19912;-72
2023/08/21 03:27:35;;;;;;;;;;;20.60;99.90;;;;;;5093127;28;19912;-72
2023/08/21 03:30:01;;;;;;;;;;;20.60;99.90;;;;;;5093135;28;19912;-72
2023/08/21 03:32:26;;;;;;;;;;;20.60;99.90;;;;;;5092922;28;19994;-71
2023/08/21 03:34:52;;;;;;;;;;;20.60;99.90;;;;;;5093284;28;19920;-72
2023/08/21 03:37:17;;;;;;;;;;;20.60;99.90;;;;;;5092804;28;20308;-71
2023/08/21 03:39:43;;;;;;;;;;;20.70;99.90;;;;;;5092936;28;19912;-71
2023/08/21 03:42:08;;;;;;;;;;;20.60;99.90;;;;;;5092811;28;19947;-71
2023/08/21 03:44:34;;;;;;;;;;;20.70;99.90;;;;;;5091622;28;20354;-71
2023/08/21 03:47:00;;;;;;;;;;;20.70;99.90;;;;;;5093145;28;19952;-71
2023/08/21 03:49:25;;;;;;;;;;;20.70;99.90;;;;;;5093103;28;19900;-71
2023/08/21 03:51:51;;;;;;;;;;;20.80;99.90;;;;;;5091510;28;19912;-71
2023/08/21 03:54:16;;;;;;;;;;;20.80;99.90;;;;;;5092467;28;19913;-70
2023/08/21 03:56:42;;;;;;;;;;;20.80;99.90;;;;;;5091740;28;19912;-70
2023/08/21 03:59:07;;;;;;;;;;;20.90;99.90;;;;;;5092285;28;20360;-72
2023/08/21 04:01:33;;;;;;;;;;;20.90;99.90;;;;;;5091900;28;19908;-71
2023/08/21 04:03:59;;;;;;;;;;;20.90;99.90;;;;;;5092305;28;19912;-71
2023/08/21 04:06:24;;;;;;;;;;;20.90;99.90;;;;;;5092248;28;19920;-71
2023/08/21 04:08:50;;;;;;;;;;;20.90;99.90;;;;;;5091007;28;19920;-70
2023/08/21 04:11:16;;;;;;;;;;;20.90;99.90;;;;;;5092299;28;19908;-70
2023/08/21 04:13:41;;;;;;;;;;;20.90;99.90;;;;;;5092501;28;19904;-70
2023/08/21 04:16:08;;;;;;;;;;;21.00;99.90;;;;;;5092298;28;19981;-71
2023/08/21 04:18:33;;;;;;;;;;;20.90;99.90;;;;;;5092268;28;20481;-71
2023/08/21 04:20:59;;;;;;;;;;;20.90;99.90;;;;;;5092053;28;20402;-70
2023/08/21 04:23:24;;;;;;;;;;;21.00;99.90;;;;;;5091763;28;19916;-71
2023/08/21 04:25:50;;;;;;;;;;;21.00;99.90;;;;;;5092203;28;19934;-71
2023/08/21 04:28:16;;;;;;;;;;;21.00;99.90;;;;;;5091820;28;19939;-71
2023/08/21 04:30:44;;;;;;;;;;;21.00;99.90;;;;;;5090825;28;20393;-71
2023/08/21 04:33:09;;;;;;;;;;;21.00;99.90;;;;;;5091681;28;19919;-71
2023/08/21 04:35:38;;;;;;;;;;;21.00;99.90;;;;;;5091815;28;19991;-71
2023/08/21 04:38:04;;;;;;;;;;;21.10;99.90;;;;;;5091756;28;19917;-71
2023/08/21 04:40:30;;;;;;;;;;;21.10;99.90;;;;;;5091971;28;19915;-70
2023/08/21 04:42:55;;;;;;;;;;;21.10;99.90;;;;;;5091499;28;19912;-71
2023/08/21 04:45:21;;;;;;;;;;;21.00;99.90;;;;;;5091531;28;19999;-70
2023/08/21 04:47:46;;;;;;;;;;;21.00;99.90;;;;;;5091495;28;19958;-72
2023/08/21 04:50:12;;;;;;;;;;;21.10;99.90;;;;;;5090350;28;20326;-70
2023/08/21 04:52:37;;;;;;;;;;;21.10;99.90;;;;;;5090813;28;19919;-71
2023/08/21 04:55:03;;;;;;;;;;;21.10;99.90;;;;;;5091587;28;19912;-70
2023/08/21 04:57:29;;;;;;;;;;;21.10;99.90;;;;;;5091075;28;19916;-71
2023/08/21 04:59:54;;;;;;;;;;;21.10;99.90;;;;;;5091472;28;19920;-70
2023/08/21 05:02:20;;;;;;;;;;;21.20;99.90;;;;;;5091162;28;19916;-70
2023/08/21 05:04:45;;;;;;;;;;;21.10;99.90;;;;;;5091649;28;19915;-69
2023/08/21 05:07:11;;;;;;;;;;;21.10;99.90;;;;;;5090412;28;19912;-70
2023/08/21 05:09:36;;;;;;;;;;;21.10;99.90;;;;;;5090899;28;19973;-70
2023/08/21 05:12:02;;;;;;;;;;;21.20;99.90;;;;;;5091146;28;19973;-73
2023/08/21 05:14:27;;;;;;;;;;;21.10;99.90;;;;;;5089765;28;20337;-70
2023/08/21 05:16:53;;;;;;;;;;;21.10;99.90;;;;;;5091268;28;19916;-68
2023/08/21 05:19:19;;;;;;;;;;;21.20;99.90;;;;;;5091301;28;20061;-72
2023/08/21 05:21:45;;;;;;;;;;;21.10;99.90;;;;;;5091264;28;19916;-70
2023/08/21 05:24:11;;;;;;;;;;;21.20;99.90;;;;;;5090979;28;19980;-71
2023/08/21 05:26:37;;;;;;;;;;;21.20;99.90;;;;;;5090769;28;19913;-70
2023/08/21 05:29:02;;;;;;;;;;;21.30;99.90;;;;;;5090778;28;19908;-70
2023/08/21 05:31:28;;;;;;;;;;;21.30;99.90;;;;;;5090320;28;19978;-70
2023/08/21 05:33:54;;;;;;;;;;;21.30;99.90;;;;;;5090780;28;20319;-70
2023/08/21 05:36:19;;;;;;;;;;;21.30;99.90;;;;;;5090828;28;20377;-70
2023/08/21 05:38:45;;;;;;;;;;;21.30;99.90;;;;;;5089744;28;19924;-72
2023/08/21 05:41:11;;;;;;;;;;;21.30;99.90;;;;;;5090780;28;19951;-71
2023/08/21 05:43:36;;;;;;;;;;;21.30;99.90;;;;;;5090952;28;19942;-73
2023/08/21 05:46:05;;;;;;;;;;;21.40;99.90;;;;;;5090792;28;19924;-71
2023/08/21 05:48:30;;;;;;;;;;;21.30;99.90;;;;;;5090693;28;19916;-71
2023/08/21 05:50:57;;;;;;;;;;;21.30;99.90;;;;;;5090923;28;20420;-72
2023/08/21 05:53:22;;;;;;;;;;;21.30;99.90;;;;;;5090810;28;19912;-74
2023/08/21 05:55:48;;;;;;;;;;;21.30;99.90;;;;;;5091058;28;19908;-70
2023/08/21 05:58:13;;;;;;;;;;;21.20;99.90;;;;;;5090941;28;19986;-71
2023/08/21 06:00:39;;;;;;;;;;;21.10;99.90;;;;;;5090815;28;19912;-71
2023/08/21 06:03:04;;;;;;;;;;;21.10;99.90;;;;;;5090885;28;19916;-70
2023/08/21 06:05:30;;;;;;;;;;;21.20;99.90;;;;;;5090688;28;20346;-69
2023/08/21 06:07:56;;;;;;;;;;;21.30;99.90;;;;;;5091093;28;19909;-71
2023/08/21 06:10:21;;;;;;;;;;;21.30;99.90;;;;;;5089618;28;20204;-71
2023/08/21 06:12:48;;;;;;;;;;;21.50;99.90;;;;;;5090919;28;19935;-71
2023/08/21 06:15:13;;;;;;;;;;;21.60;99.90;;;;;;5090999;28;19917;-73
2023/08/21 06:17:39;;;;;;;;;;;21.60;99.90;;;;;;5090729;28;19988;-71
2023/08/21 06:20:05;;;;;;;;;;;21.70;99.90;;;;;;5093039;28;19912;-70
2023/08/21 06:22:31;;;;;;;;;;;21.80;99.90;;;;;;5093623;28;19932;-71
2023/08/21 06:24:57;;;;;;;;;;;21.90;99.90;;;;;;5094002;28;19913;-70
2023/08/21 06:27:22;;;;;;;;;;;21.90;99.90;;;;;;5093080;28;19912;-69
2023/08/21 06:29:48;;;;;;;;;;;22.00;99.90;;;;;;5094118;28;19999;-71
2023/08/21 06:32:13;;;;;;;;;;;22.10;99.90;;;;;;5093923;28;20326;-70
2023/08/21 06:34:39;;;;;;;;;;;22.10;99.90;;;;;;5094298;28;20349;-70
2023/08/21 06:37:04;;;;;;;;;;;22.20;99.90;;;;;;5094121;28;20300;-70
2023/08/21 06:39:30;;;;;;;;;;;22.30;99.90;;;;;;5093979;28;20354;-70
2023/08/21 06:41:56;;;;;;;;;;;22.30;99.90;;;;;;5093771;28;19916;-69
2023/08/21 06:44:22;;;;;;;;;;;22.30;99.90;;;;;;5093640;28;20261;-71
2023/08/21 06:46:47;;;;;;;;;;;22.40;99.90;;;;;;5094205;28;19965;-71
2023/08/21 06:49:13;;;;;;;;;;;22.40;99.90;;;;;;5093732;28;20319;-70
2023/08/21 06:51:38;;;;;;;;;;;22.40;99.90;;;;;;5092522;28;19912;-70
2023/08/21 06:54:04;;;;;;;;;;;22.40;99.90;;;;;;5093752;28;20346;-70
2023/08/21 06:56:29;;;;;;;;;;;22.50;99.90;;;;;;5093225;28;19920;-68
2023/08/21 06:58:55;;;;;;;;;;;22.60;99.90;;;;;;5093739;28;19916;-70
2023/08/21 07:01:21;;;;;;;;;;;22.60;99.90;;;;;;5093607;28;19923;-70
2023/08/21 07:03:46;;;;;;;;;;;22.60;99.90;;;;;;5093428;28;19995;-71
2023/08/21 07:06:12;;;;;;;;;;;22.60;99.90;;;;;;5093264;28;19923;-70
2023/08/21 07:08:40;;;;;;;;;;;22.60;99.90;;;;;;5092130;28;20329;-70
2023/08/21 07:11:07;;;;;;;;;;;22.70;99.90;;;;;;5093262;28;19950;-70
2023/08/21 07:13:33;;;;;;;;;;;22.80;99.90;;;;;;5093942;28;19904;-71
2023/08/21 07:15:58;;;;;;;;;;;22.80;99.80;;;;;;5093219;28;19923;-70
2023/08/21 07:18:24;;;;;;;;;;;22.90;99.60;;;;;;5093051;28;19950;-70
2023/08/21 07:20:51;;;;;;;;;;;22.90;99.40;;;;;;5093474;28;19916;-70
2023/08/21 07:23:17;;;;;;;;;;;22.90;99.40;;;;;;5093009;28;19908;-71
2023/08/21 07:25:43;;;;;;;;;;;23.10;99.30;;;;;;5093253;28;20257;-73
2023/08/21 07:28:10;;;;;;;;;;;23.10;99.10;;;;;;5093034;28;20168;-71
2023/08/21 07:30:39;;;;;;;;;;;23.10;98.90;;;;;;5092173;28;19912;-73
2023/08/21 07:33:05;;;;;;;;;;;23.10;98.70;;;;;;5092718;28;19912;-73
2023/08/21 07:35:30;;;;;;;;;;;23.10;98.70;;;;;;5091776;28;19924;-72
2023/08/21 07:37:56;;;;;;;;;;;23.20;98.80;;;;;;5093011;28;19923;-72
2023/08/21 07:40:22;;;;;;;;;;;23.20;98.70;;;;;;5092426;28;19916;-71
2023/08/21 07:42:47;;;;;;;;;;;23.30;98.80;;;;;;5092837;28;20469;-73
2023/08/21 07:45:13;;;;;;;;;;;23.40;98.70;;;;;;5092770;28;19913;-75
2023/08/21 07:47:38;;;;;;;;;;;23.40;98.70;;;;;;5092766;28;19912;-69
2023/08/21 07:50:05;;;;;;;;;;;23.40;98.70;;;;;;5089491;28;19916;-70
2023/08/21 07:52:31;;;;;;;;;;;23.50;98.60;;;;;;5093451;28;19904;-70
2023/08/21 07:54:56;;;;;;;;;;;23.60;98.60;;;;;;5092710;28;20397;-69
2023/08/21 07:57:22;;;;;;;;;;;23.60;98.40;;;;;;5091623;28;19970;-70
2023/08/21 07:59:47;;;;;;;;;;;23.70;98.40;;;;;;5093126;28;19939;-70
2023/08/21 08:02:13;;;;;;;;;;;23.70;98.10;;;;;;5092023;28;20242;-70
2023/08/21 08:04:39;;;;;;;;;;;23.80;97.70;;;;;;5091652;28;19991;-70
2023/08/21 08:07:05;;;;;;;;;;;23.80;97.50;;;;;;5092461;28;19946;-69
2023/08/21 08:09:30;;;;;;;;;;;23.80;97.30;;;;;;5091317;28;19938;-70
2023/08/21 08:11:56;;;;;;;;;;;23.80;97.30;;;;;;5092555;28;19916;-69
2023/08/21 08:14:21;;;;;;;;;;;24.00;97.30;;;;;;5092145;28;20329;-68
2023/08/21 08:16:47;;;;;;;;;;;24.20;97.30;;;;;;5092625;28;20223;-70
2023/08/21 08:19:13;;;;;;;;;;;24.30;97.00;;;;;;5091772;28;20250;-71
2023/08/21 08:21:38;;;;;;;;;;;24.40;96.70;;;;;;5091930;28;20262;-70
2023/08/21 08:24:04;;;;;;;;;;;24.50;96.50;;;;;;5091957;28;20316;-71
2023/08/21 08:26:29;;;;;;;;;;;24.70;96.30;;;;;;5092017;28;19916;-73
2023/08/21 08:28:55;;;;;;;;;;;24.90;96.00;;;;;;5093130;28;19912;-70
2023/08/21 08:31:21;;;;;;;;;;;25.20;96.20;;;;;;5092056;28;20249;-69
2023/08/21 08:33:48;;;;;;;;;;;25.90;94.80;;;;;;5091855;28;20377;-69
2023/08/21 08:36:13;;;;;;;;;;;26.30;94.00;;;;;;5090616;28;19912;-69
2023/08/21 08:38:39;;;;;;;;;;;26.60;93.60;;;;;;5091952;28;19920;-69
2023/08/21 08:41:09;;;;;;;;;;;26.50;93.50;;;;;;5091877;28;20304;-68
2023/08/21 08:43:37;;;;;;;;;;;26.70;93.30;;;;;;5092348;28;19908;-72
2023/08/21 08:46:03;;;;;;;;;;;26.60;92.90;;;;;;5091743;28;19916;-70
2023/08/21 08:48:29;;;;;;;;;;;26.80;92.70;;;;;;5091821;28;19995;-71
2023/08/21 08:50:54;;;;;;;;;;;27.20;92.10;;;;;;5090283;28;20113;-70
2023/08/21 08:53:20;;;;;;;;;;;27.00;92.20;;;;;;5090675;28;20265;-71
2023/08/21 08:55:45;;;;;;;;;;;27.10;91.90;;;;;;5091069;28;20341;-71
2023/08/21 08:58:11;;;;;;;;;;;26.80;92.20;;;;;;5091536;28;19956;-71
2023/08/21 09:00:37;;;;;;;;;;;27.00;91.80;;;;;;5091580;28;20306;-72
2023/08/21 09:03:03;;;;;;;;;;;27.50;92.20;;;;;;5091709;28;19974;-71
2023/08/21 09:05:29;;;;;;;;;;;28.10;91.00;;;;;;5091203;28;20227;-72
2023/08/21 09:08:23;;;;;;;;;;;28.40;90.40;;;;;;5091866;28;19969;-72
2023/08/21 09:10:49;;;;;;;;;;;28.30;87.60;;;;;;5069640;28;19922;-72
2023/08/21 09:13:16;;;;;;;;;;;28.20;89.60;;;;;;5091126;28;19916;-73
2023/08/21 09:15:43;;;;;;;;;;;28.10;86.90;;;;;;5091673;28;19912;-72
2023/08/21 09:18:09;;;;;;;;;;;27.60;88.10;;;;;;5090172;28;19926;-73
2023/08/21 09:20:35;;;;;;;;;;;27.90;88.90;;;;;;5091157;28;19916;-72
2023/08/21 09:23:01;;;;;;;;;;;27.80;88.20;;;;;;5091228;28;19977;-72
2023/08/21 09:25:27;;;;;;;;;;;28.30;88.10;;;;;;5091470;28;19908;-72
2023/08/21 09:27:55;;;;;;;;;;;29.00;87.30;;;;;;5091313;28;19920;-73
2023/08/21 09:30:21;;;;;;;;;;;29.70;85.20;;;;;;5091188;28;19912;-70
2023/08/21 09:32:57;;;;;;;;;;;30.20;83.20;;;;;;5088107;28;19920;-71
2023/08/21 09:35:23;;;;;;;;;;;29.70;84.30;;;;;;5091539;28;20338;-70
2023/08/21 09:37:49;;;;;;;;;;;29.80;82.00;;;;;;5091494;28;19924;-72
2023/08/21 09:40:15;;;;;;;;;;;29.80;82.20;;;;;;5090286;28;20004;-72
2023/08/21 09:42:40;;;;;;;;;;;29.70;81.90;;;;;;5091243;28;19916;-71
2023/08/21 09:45:06;;;;;;;;;;;29.50;82.50;;;;;;5090287;28;20355;-71
2023/08/21 09:47:31;;;;;;;;;;;29.00;82.00;;;;;;5091118;28;19970;-71
2023/08/21 09:49:58;;;;;;;;;;;28.90;82.20;;;;;;5090428;28;19912;-71
2023/08/21 09:52:24;;;;;;;;;;;28.80;82.50;;;;;;5090392;28;20257;-71
2023/08/21 09:54:50;;;;;;;;;;;28.70;82.60;;;;;;5093421;28;19916;-71
2023/08/21 09:57:16;;;;;;;;;;;29.10;80.80;;;;;;5095042;28;19920;-72
2023/08/21 09:59:41;;;;;;;;;;;29.30;78.60;;;;;;5095034;28;20249;-72
2023/08/21 10:02:09;;;;;;;;;;;29.40;80.40;;;;;;5093562;28;19915;-73
2023/08/21 10:04:35;;;;;;;;;;;29.20;80.10;;;;;;5095527;28;19911;-72
2023/08/21 10:07:03;;;;;;;;;;;29.40;79.80;;;;;;5094850;28;19916;-71
2023/08/21 10:09:29;;;;;;;;;;;29.40;79.20;;;;;;5094922;28;19916;-73
2023/08/21 10:11:55;;;;;;;;;;;29.10;79.00;;;;;;5094886;28;19912;-72
2023/08/21 10:14:22;;;;;;;;;;;29.00;78.60;;;;;;5094719;28;19947;-73
2023/08/21 10:16:48;;;;;;;;;;;29.00;79.20;;;;;;5095001;28;19981;-72
2023/08/21 10:19:17;;;;;;;;;;;28.80;79.20;;;;;;5094639;28;19920;-72
2023/08/21 10:21:46;;;;;;;;;;;28.60;80.10;;;;;;5094499;28;19922;-73
2023/08/21 10:24:11;;;;;;;;;;;28.50;77.70;;;;;;5094469;28;19916;-72
2023/08/21 10:26:40;;;;;;;;;;;28.40;78.30;;;;;;5093131;28;20003;-75
2023/08/21 10:29:08;;;;;;;;;;;28.50;79.00;;;;;;5094568;28;19922;-73
2023/08/21 10:31:35;;;;;;;;;;;28.40;80.20;;;;;;5093409;28;19908;-74
2023/08/21 10:34:04;;;;;;;;;;;28.40;80.60;;;;;;5094162;28;19962;-73
2023/08/21 10:36:39;;;;;;;;;;;28.40;80.10;;;;;;5094270;28;20365;-74
2023/08/21 10:39:12;;;;;;;;;;;28.70;78.90;;;;;;5094270;28;20265;-73
2023/08/21 10:41:37;;;;;;;;;;;28.40;76.60;;;;;;5093066;28;20015;-74
2023/08/21 10:44:05;;;;;;;;;;;28.00;75.40;;;;;;5094216;28;19991;-74
2023/08/21 10:46:49;;;;;;;;;;;28.10;78.90;;;;;;5094297;28;19900;-72
2023/08/21 10:49:15;;;;;;;;;;;28.10;78.20;;;;;;5094094;28;20316;-72
2023/08/21 10:51:41;;;;;;;;;;;28.00;78.60;;;;;;5094187;28;19912;-74
2023/08/21 10:54:13;;;;;;;;;;;27.90;79.20;;;;;;5093969;28;20346;-73
2023/08/21 10:56:38;;;;;;;;;;;28.00;78.70;;;;;;5094144;28;19916;-73
2023/08/21 10:59:04;;;;;;;;;;;27.90;78.90;;;;;;5093878;28;19923;-73
2023/08/21 11:01:45;;;;;;;;;;;27.80;79.30;;;;;;5094238;28;20023;-72
2023/08/21 11:04:14;;;;;;;;;;;27.90;80.60;;;;;;5093822;28;19954;-73
2023/08/21 11:06:39;;;;;;;;;;;27.70;81.10;;;;;;5093711;28;20273;-73
2023/08/21 11:09:05;;;;;;;;;;;28.00;84.90;;;;;;5092677;28;20163;-75
2023/08/21 11:11:31;;;;;;;;;;;28.20;81.80;;;;;;5094287;28;19912;-73
2023/08/21 11:13:56;;;;;;;;;;;28.10;80.70;;;;;;5094417;28;19907;-75
2023/08/21 11:16:24;;;;;;;;;;;28.30;80.30;;;;;;5095475;28;19999;-76
2023/08/21 11:18:50;;;;;;;;;;;28.40;80.20;;;;;;5095948;28;19931;-75
2023/08/21 11:21:15;;;;;;;;;;;28.20;79.90;;;;;;5093560;28;19912;-75
2023/08/21 11:23:42;;;;;;;;;;;28.10;81.30;;;;;;5093442;28;20311;-74
2023/08/21 11:26:11;;;;;;;;;;;28.10;82.00;;;;;;5096712;28;19908;-75
2023/08/21 11:28:38;;;;;;;;;;;28.30;81.60;;;;;;5098648;28;19931;-76
2023/08/21 11:31:03;;;;;;;;;;;28.20;77.90;;;;;;5093638;28;19935;-76
2023/08/21 11:33:29;;;;;;;;;;;27.90;78.60;;;;;;5097030;28;20302;-76
2023/08/21 11:35:57;;;;;;;;;;;27.90;80.70;;;;;;5096585;28;19927;-74
2023/08/21 11:38:23;;;;;;;;;;;28.20;80.80;;;;;;5098082;28;19955;-74
2023/08/21 11:40:52;;;;;;;;;;;28.20;80.40;;;;;;5097209;28;20458;-77
2023/08/21 11:43:17;;;;;;;;;;;28.30;80.00;;;;;;5093658;28;19912;-75
2023/08/21 11:45:45;;;;;;;;;;;28.00;79.90;;;;;;5094318;28;19924;-74
2023/08/21 11:48:10;;;;;;;;;;;28.00;80.90;;;;;;5094411;28;19924;-74
2023/08/21 11:50:36;;;;;;;;;;;27.80;84.20;;;;;;5094039;28;19995;-72
2023/08/21 11:53:02;;;;;;;;;;;27.70;83.10;;;;;;5093890;28;20330;-72
2023/08/21 11:55:28;;;;;;;;;;;27.80;83.10;;;;;;5094573;28;19908;-75
2023/08/21 11:57:54;;;;;;;;;;;27.70;81.80;;;;;;5092618;28;19995;-71
2023/08/21 12:00:26;;;;;;;;;;;27.60;82.20;;;;;;5092763;28;20065;-74
2023/08/21 12:02:59;;;;;;;;;;;27.50;85.60;;;;;;5092699;28;19991;-72
2023/08/21 12:05:26;;;;;;;;;;;27.60;83.40;;;;;;5092671;28;19923;-72
2023/08/21 12:07:52;;;;;;;;;;;27.70;83.80;;;;;;5093290;28;19908;-72
2023/08/21 12:10:28;;;;;;;;;;;27.90;83.20;;;;;;5091277;28;20345;-71
2023/08/21 12:12:54;;;;;;;;;;;27.70;81.50;;;;;;5092815;28;19912;-72
2023/08/21 12:15:20;;;;;;;;;;;27.70;82.60;;;;;;5091246;28;20456;-73
2023/08/21 12:17:45;;;;;;;;;;;27.60;82.20;;;;;;5090815;28;19920;-74
2023/08/21 12:20:11;;;;;;;;;;;27.60;82.40;;;;;;5091151;28;19912;-72
2023/08/21 12:22:37;;;;;;;;;;;27.60;82.80;;;;;;5093133;28;19908;-77
2023/08/21 12:25:03;;;;;;;;;;;27.70;84.20;;;;;;5092260;28;19912;-77
2023/08/21 12:27:29;;;;;;;;;;;27.90;84.70;;;;;;5091487;28;19912;-77
2023/08/21 12:29:54;;;;;;;;;;;27.90;83.30;;;;;;5091542;28;20016;-76
2023/08/21 12:32:20;;;;;;;;;;;27.90;82.20;;;;;;5092139;28;19981;-75
2023/08/21 12:34:46;;;;;;;;;;;28.00;80.90;;;;;;5091070;28;19970;-73
2023/08/21 12:37:11;;;;;;;;;;;27.70;80.10;;;;;;5091791;28;19912;-72
2023/08/21 12:39:37;;;;;;;;;;;27.80;81.10;;;;;;5090347;28;20354;-73
2023/08/21 12:42:03;;;;;;;;;;;28.00;80.80;;;;;;5091980;28;19924;-73
2023/08/21 12:44:28;;;;;;;;;;;28.10;78.40;;;;;;5091891;28;20253;-74
2023/08/21 12:46:54;;;;;;;;;;;27.90;78.10;;;;;;5091263;28;19916;-74
2023/08/21 12:49:20;;;;;;;;;;;28.00;79.10;;;;;;5091991;28;20410;-75
2023/08/21 12:51:45;;;;;;;;;;;27.90;77.80;;;;;;5090527;28;19951;-74
2023/08/21 12:54:11;;;;;;;;;;;27.80;77.70;;;;;;5087420;28;19923;-71
2023/08/21 12:56:36;;;;;;;;;;;27.60;75.40;;;;;;5090548;28;20029;-71
2023/08/21 12:59:03;;;;;;;;;;;27.60;76.00;;;;;;5091561;28;20021;-73
2023/08/21 13:01:29;;;;;;;;;;;27.70;77.10;;;;;;5092085;28;19907;-74
2023/08/21 13:03:55;;;;;;;;;;;27.60;78.20;;;;;;5090521;28;19939;-74
2023/08/21 13:06:21;;;;;;;;;;;27.70;77.00;;;;;;5091366;28;20243;-72
2023/08/21 13:08:46;;;;;;;;;;;27.70;77.20;;;;;;5090152;28;19912;-72
2023/08/21 13:11:12;;;;;;;;;;;27.80;77.10;;;;;;5090646;28;19908;-71
2023/08/21 13:13:37;;;;;;;;;;;27.80;76.90;;;;;;5091806;28;19998;-71
2023/08/21 13:16:03;;;;;;;;;;;27.70;77.40;;;;;;5091584;28;20338;-71
2023/08/21 13:18:29;;;;;;;;;;;27.70;77.60;;;;;;5091235;28;19923;-72
2023/08/21 13:20:54;;;;;;;;;;;27.70;78.90;;;;;;5090365;28;19916;-74
2023/08/21 13:23:20;;;;;;;;;;;27.60;78.00;;;;;;5091180;28;20267;-72
2023/08/21 13:25:46;;;;;;;;;;;27.60;77.10;;;;;;5091612;28;20354;-72
2023/08/21 13:28:11;;;;;;;;;;;27.50;77.40;;;;;;5091502;28;19912;-72
2023/08/21 13:30:37;;;;;;;;;;;27.40;76.00;;;;;;5094154;28;20356;-72
2023/08/21 13:33:04;;;;;;;;;;;27.30;77.20;;;;;;5094231;28;19975;-71
2023/08/21 13:35:30;;;;;;;;;;;27.50;76.50;;;;;;5095477;28;19951;-71
2023/08/21 13:37:55;;;;;;;;;;;27.40;75.40;;;;;;5096233;28;19982;-72
2023/08/21 13:40:21;;;;;;;;;;;27.30;75.50;;;;;;5094913;28;19954;-72
2023/08/21 13:42:48;;;;;;;;;;;27.30;76.00;;;;;;5095189;28;19948;-72
2023/08/21 13:45:15;;;;;;;;;;;27.30;76.80;;;;;;5095425;28;19913;-72
2023/08/21 13:47:41;;;;;;;;;;;27.40;77.90;;;;;;5095262;28;19916;-72
2023/08/21 13:50:07;;;;;;;;;;;27.40;77.30;;;;;;5094166;28;19908;-72
2023/08/21 13:52:33;;;;;;;;;;;27.50;77.20;;;;;;5094775;28;20346;-72
2023/08/21 13:54:59;;;;;;;;;;;27.40;76.40;;;;;;5094699;28;19912;-71
2023/08/21 13:57:25;;;;;;;;;;;27.40;76.70;;;;;;5095212;28;20369;-72
2023/08/21 13:59:51;;;;;;;;;;;27.40;77.60;;;;;;5094874;28;19920;-72
2023/08/21 14:02:18;;;;;;;;;;;27.40;76.70;;;;;;5094930;28;20271;-74
2023/08/21 14:04:44;;;;;;;;;;;27.40;77.00;;;;;;5095477;28;19916;-72
2023/08/21 14:07:09;;;;;;;;;;;27.50;77.30;;;;;;5095109;28;19912;-74
2023/08/21 14:09:36;;;;;;;;;;;27.50;78.80;;;;;;5094647;28;20274;-72